createdAt,value
2022-09-14T00:00:42.250Z,22.51
2022-09-14T00:01:42.279Z,22.51
2022-09-14T00:02:42.323Z,22.53
2022-09-14T00:03:42.274Z,22.51
2022-09-14T00:04:42.206Z,22.51
2022-09-14T00:05:42.195Z,22.53
2022-09-14T00:06:42.184Z,22.53
2022-09-14T00:07:42.176Z,22.51
2022-09-14T00:08:42.194Z,22.53
2022-09-14T00:09:42.153Z,22.51
2022-09-14T00:10:42.140Z,22.53
2022-09-14T00:11:42.131Z,22.53
2022-09-14T00:12:42.125Z,22.51
2022-09-14T00:13:42.218Z,22.53
2022-09-14T00:14:42.137Z,22.53
2022-09-14T00:15:42.086Z,22.53
2022-09-14T00:16:42.146Z,22.51
2022-09-14T00:17:42.077Z,22.51
2022-09-14T00:18:42.063Z,22.53
2022-09-14T00:19:42.095Z,22.51
2022-09-14T00:20:42.043Z,22.51
2022-09-14T00:21:42.020Z,22.51
2022-09-14T00:22:42.010Z,22.51
2022-09-14T00:23:41.998Z,22.51
2022-09-14T00:24:42.011Z,22.51
2022-09-14T00:25:41.978Z,22.51
2022-09-14T00:26:41.965Z,22.51
2022-09-14T00:27:41.975Z,22.53
2022-09-14T00:28:41.948Z,22.51
2022-09-14T00:29:41.953Z,22.51
2022-09-14T00:30:41.924Z,22.51
2022-09-14T00:31:41.944Z,22.53
2022-09-14T00:32:41.903Z,22.51
2022-09-14T00:33:41.911Z,22.51
2022-09-14T00:34:41.881Z,22.51
2022-09-14T00:35:41.891Z,22.51
2022-09-14T00:36:41.857Z,22.51
2022-09-14T00:37:41.875Z,22.50
2022-09-14T00:38:41.837Z,22.51
2022-09-14T00:39:41.864Z,22.50
2022-09-14T00:40:41.816Z,22.51
2022-09-14T00:41:41.802Z,22.51
2022-09-14T00:42:41.794Z,22.51
2022-09-14T00:43:41.802Z,22.50
2022-09-14T00:44:41.770Z,22.50
2022-09-14T00:45:41.824Z,22.51
2022-09-14T00:46:41.747Z,22.50
2022-09-14T00:47:41.761Z,22.50
2022-09-14T00:48:41.726Z,22.51
2022-09-14T00:49:41.716Z,22.50
2022-09-14T00:50:41.703Z,22.48
2022-09-14T00:51:41.716Z,22.51
2022-09-14T00:52:41.705Z,22.50
2022-09-14T00:53:41.691Z,22.51
2022-09-14T00:54:41.667Z,22.51
2022-09-14T00:55:41.649Z,22.50
2022-09-14T00:56:41.639Z,22.50
2022-09-14T00:57:41.651Z,22.51
2022-09-14T00:58:41.616Z,22.50
2022-09-14T00:59:41.609Z,22.51
2022-09-14T01:00:41.650Z,22.51
2022-09-14T01:01:41.623Z,22.51
2022-09-14T01:02:41.608Z,22.51
2022-09-14T01:03:41.564Z,22.50
2022-09-14T01:04:41.551Z,22.50
2022-09-14T01:05:41.544Z,22.51
2022-09-14T01:06:41.529Z,22.51
2022-09-14T01:07:41.541Z,22.50
2022-09-14T01:08:41.529Z,22.50
2022-09-14T01:09:41.499Z,22.50
2022-09-14T01:10:41.486Z,22.50
2022-09-14T01:11:41.484Z,22.50
2022-09-14T01:12:41.465Z,22.50
2022-09-14T01:13:41.477Z,22.50
2022-09-14T01:14:41.441Z,22.50
2022-09-14T01:15:41.433Z,22.50
2022-09-14T01:16:41.547Z,22.50
2022-09-14T01:17:41.412Z,22.50
2022-09-14T01:18:41.398Z,22.48
2022-09-14T01:19:41.390Z,22.50
2022-09-14T01:20:41.379Z,22.50
2022-09-14T01:21:41.388Z,22.50
2022-09-14T01:22:41.356Z,22.50
2022-09-14T01:23:41.469Z,22.50
2022-09-14T01:24:41.331Z,22.50
2022-09-14T01:25:41.323Z,22.50
2022-09-14T01:26:41.333Z,22.50
2022-09-14T01:27:41.323Z,22.51
2022-09-14T01:28:41.288Z,22.50
2022-09-14T01:29:41.277Z,22.50
2022-09-14T01:30:41.267Z,22.50
2022-09-14T01:31:41.336Z,22.50
2022-09-14T01:32:41.266Z,22.50
2022-09-14T01:33:41.238Z,22.51
2022-09-14T01:34:41.223Z,22.48
2022-09-14T01:35:41.212Z,22.48
2022-09-14T01:36:41.201Z,22.50
2022-09-14T01:37:41.216Z,22.50
2022-09-14T01:38:41.179Z,22.48
2022-09-14T01:39:41.448Z,22.50
2022-09-14T01:40:41.170Z,22.50
2022-09-14T01:41:41.166Z,22.50
2022-09-14T01:42:41.158Z,22.48
2022-09-14T01:43:41.152Z,22.50
2022-09-14T01:44:41.114Z,22.50
2022-09-14T01:45:41.180Z,22.48
2022-09-14T01:46:41.092Z,22.50
2022-09-14T01:47:41.083Z,22.50
2022-09-14T01:48:41.095Z,22.50
2022-09-14T01:49:41.062Z,22.48
2022-09-14T01:50:41.049Z,22.48
2022-09-14T01:51:41.039Z,22.48
2022-09-14T01:52:41.026Z,22.48
2022-09-14T01:53:41.041Z,22.50
2022-09-14T01:54:41.004Z,22.50
2022-09-14T01:55:41.015Z,22.50
2022-09-14T01:56:40.983Z,22.48
2022-09-14T01:57:40.974Z,22.50
2022-09-14T01:58:40.984Z,22.48
2022-09-14T01:59:40.955Z,22.48
2022-09-14T02:00:41.013Z,22.48
2022-09-14T02:01:40.952Z,22.51
2022-09-14T02:02:40.976Z,22.50
2022-09-14T02:03:40.911Z,22.50
2022-09-14T02:04:40.897Z,22.48
2022-09-14T02:05:40.923Z,22.51
2022-09-14T02:06:40.874Z,22.48
2022-09-14T02:07:40.864Z,22.50
2022-09-14T02:08:40.852Z,22.48
2022-09-14T02:09:40.843Z,22.48
2022-09-14T02:10:40.830Z,22.48
2022-09-14T02:11:40.921Z,22.50
2022-09-14T02:12:40.808Z,22.48
2022-09-14T02:13:40.799Z,22.50
2022-09-14T02:14:40.786Z,22.50
2022-09-14T02:15:40.774Z,22.48
2022-09-14T02:16:40.841Z,22.48
2022-09-14T02:17:40.775Z,22.50
2022-09-14T02:18:40.745Z,22.48
2022-09-14T02:19:40.732Z,22.50
2022-09-14T02:20:40.725Z,22.48
2022-09-14T02:21:40.710Z,22.48
2022-09-14T02:22:40.731Z,22.50
2022-09-14T02:23:40.709Z,22.48
2022-09-14T02:24:40.692Z,22.48
2022-09-14T02:25:40.665Z,22.50
2022-09-14T02:26:40.656Z,22.48
2022-09-14T02:27:40.668Z,22.48
2022-09-14T02:28:40.658Z,22.48
2022-09-14T02:29:40.648Z,22.48
2022-09-14T02:30:40.614Z,22.48
2022-09-14T02:31:40.630Z,22.48
2022-09-14T02:32:40.593Z,22.50
2022-09-14T02:33:40.601Z,22.48
2022-09-14T02:34:40.568Z,22.48
2022-09-14T02:35:40.557Z,22.50
2022-09-14T02:36:40.550Z,22.50
2022-09-14T02:37:40.535Z,22.48
2022-09-14T02:38:40.548Z,22.50
2022-09-14T02:39:40.513Z,22.48
2022-09-14T02:40:40.509Z,22.48
2022-09-14T02:41:40.492Z,22.48
2022-09-14T02:42:40.505Z,22.48
2022-09-14T02:43:40.499Z,22.50
2022-09-14T02:44:40.463Z,22.50
2022-09-14T02:45:40.450Z,22.48
2022-09-14T02:46:40.483Z,22.50
2022-09-14T02:47:40.450Z,22.47
2022-09-14T02:48:40.417Z,22.50
2022-09-14T02:49:40.404Z,22.50
2022-09-14T02:50:40.396Z,22.48
2022-09-14T02:51:40.384Z,22.48
2022-09-14T02:52:40.396Z,22.48
2022-09-14T02:53:40.362Z,22.48
2022-09-14T02:54:40.373Z,22.48
2022-09-14T02:55:40.350Z,22.50
2022-09-14T02:56:40.331Z,22.48
2022-09-14T02:57:40.338Z,22.48
2022-09-14T02:58:40.378Z,22.48
2022-09-14T02:59:40.318Z,22.48
2022-09-14T03:00:40.433Z,22.48
2022-09-14T03:01:40.377Z,22.48
2022-09-14T03:02:40.287Z,22.48
2022-09-14T03:03:40.273Z,22.47
2022-09-14T03:04:40.242Z,22.48
2022-09-14T03:05:40.231Z,22.47
2022-09-14T03:06:40.219Z,22.48
2022-09-14T03:07:40.213Z,22.48
2022-09-14T03:08:40.364Z,22.48
2022-09-14T03:09:40.209Z,22.47
2022-09-14T03:10:40.176Z,22.48
2022-09-14T03:11:40.167Z,22.48
2022-09-14T03:12:40.154Z,22.48
2022-09-14T03:13:40.164Z,22.48
2022-09-14T03:14:40.135Z,22.48
2022-09-14T03:15:40.148Z,22.47
2022-09-14T03:16:40.202Z,22.48
2022-09-14T03:17:40.099Z,22.48
2022-09-14T03:18:40.252Z,22.47
2022-09-14T03:19:40.078Z,22.48
2022-09-14T03:20:40.090Z,22.48
2022-09-14T03:21:40.060Z,22.47
2022-09-14T03:22:40.047Z,22.47
2022-09-14T03:23:40.035Z,22.47
2022-09-14T03:24:40.023Z,22.47
2022-09-14T03:25:40.034Z,22.48
2022-09-14T03:26:40.004Z,22.47
2022-09-14T03:27:39.992Z,22.47
2022-09-14T03:28:40.003Z,22.47
2022-09-14T03:29:39.969Z,22.47
2022-09-14T03:30:39.961Z,22.47
2022-09-14T03:31:40.160Z,22.47
2022-09-14T03:32:39.965Z,22.47
2022-09-14T03:33:39.988Z,22.47
2022-09-14T03:34:39.937Z,22.47
2022-09-14T03:35:39.903Z,22.47
2022-09-14T03:36:39.896Z,22.47
2022-09-14T03:37:39.904Z,22.48
2022-09-14T03:38:39.871Z,22.47
2022-09-14T03:39:39.858Z,22.48
2022-09-14T03:40:39.887Z,22.48
2022-09-14T03:41:39.839Z,22.45
2022-09-14T03:42:39.828Z,22.45
2022-09-14T03:43:39.947Z,22.47
2022-09-14T03:44:39.807Z,22.44
2022-09-14T03:45:39.794Z,22.48
2022-09-14T03:46:39.883Z,22.47
2022-09-14T03:47:39.800Z,22.45
2022-09-14T03:48:39.764Z,22.47
2022-09-14T03:49:39.750Z,22.47
2022-09-14T03:50:39.764Z,22.47
2022-09-14T03:51:39.729Z,22.47
2022-09-14T03:52:39.721Z,22.47
2022-09-14T03:53:39.793Z,22.47
2022-09-14T03:54:39.735Z,22.47
2022-09-14T03:55:39.686Z,22.48
2022-09-14T03:56:39.676Z,22.45
2022-09-14T03:57:39.665Z,22.47
2022-09-14T03:58:39.655Z,22.44
2022-09-14T03:59:43.604Z,22.47
2022-09-14T04:00:39.654Z,22.47
2022-09-14T04:01:39.681Z,22.45
2022-09-14T04:02:39.675Z,22.45
2022-09-14T04:03:39.707Z,22.47
2022-09-14T04:04:39.589Z,22.45
2022-09-14T04:05:39.598Z,22.47
2022-09-14T04:06:39.589Z,22.47
2022-09-14T04:07:39.555Z,22.45
2022-09-14T04:08:39.638Z,22.45
2022-09-14T04:09:39.533Z,22.47
2022-09-14T04:10:39.522Z,22.45
2022-09-14T04:11:39.532Z,22.47
2022-09-14T04:12:39.503Z,22.47
2022-09-14T04:13:39.511Z,22.47
2022-09-14T04:14:39.479Z,22.47
2022-09-14T04:15:39.528Z,22.45
2022-09-14T04:16:39.458Z,22.47
2022-09-14T04:17:39.447Z,22.47
2022-09-14T04:18:39.458Z,22.45
2022-09-14T04:19:39.472Z,22.47
2022-09-14T04:20:39.415Z,22.45
2022-09-14T04:21:39.403Z,22.45
2022-09-14T04:22:39.392Z,22.47
2022-09-14T04:24:02.983Z,22.45
2022-09-14T04:24:40.395Z,22.45
2022-09-14T04:25:39.358Z,22.45
2022-09-14T04:26:39.347Z,22.45
2022-09-14T04:27:39.337Z,22.47
2022-09-14T04:28:39.328Z,22.45
2022-09-14T04:29:39.336Z,22.47
2022-09-14T04:30:39.307Z,22.47
2022-09-14T04:31:39.361Z,22.45
2022-09-14T04:32:39.282Z,22.47
2022-09-14T04:33:39.428Z,22.45
2022-09-14T04:34:39.282Z,22.45
2022-09-14T04:35:39.355Z,22.47
2022-09-14T04:36:39.261Z,22.47
2022-09-14T04:37:39.249Z,22.47
2022-09-14T04:38:39.219Z,22.47
2022-09-14T04:39:39.207Z,22.47
2022-09-14T04:40:39.195Z,22.45
2022-09-14T04:41:39.207Z,22.47
2022-09-14T04:42:39.197Z,22.45
2022-09-14T04:43:39.162Z,22.45
2022-09-14T04:44:39.151Z,22.47
2022-09-14T04:45:39.139Z,22.45
2022-09-14T04:46:42.306Z,22.45
2022-09-14T04:47:40.141Z,22.47
2022-09-14T04:48:39.118Z,22.47
2022-09-14T04:49:39.097Z,22.45
2022-09-14T04:50:39.089Z,22.45
2022-09-14T04:51:39.119Z,22.47
2022-09-14T04:52:39.066Z,22.47
2022-09-14T04:53:39.052Z,22.45
2022-09-14T04:54:39.046Z,22.47
2022-09-14T04:55:39.032Z,22.47
2022-09-14T04:56:39.046Z,22.48
2022-09-14T04:57:39.009Z,22.47
2022-09-14T04:58:39.035Z,22.45
2022-09-14T04:59:38.997Z,22.45
2022-09-14T05:00:38.981Z,22.45
2022-09-14T05:01:39.068Z,22.45
2022-09-14T05:02:38.995Z,22.45
2022-09-14T05:03:38.948Z,22.45
2022-09-14T05:04:38.955Z,22.45
2022-09-14T05:05:42.989Z,22.45
2022-09-14T05:06:39.910Z,22.47
2022-09-14T05:07:38.924Z,22.44
2022-09-14T05:08:38.891Z,22.45
2022-09-14T05:09:38.902Z,22.45
2022-09-14T05:10:38.871Z,22.45
2022-09-14T05:11:38.857Z,22.45
2022-09-14T05:12:38.848Z,22.44
2022-09-14T05:13:38.835Z,22.45
2022-09-14T05:14:38.847Z,22.45
2022-09-14T05:15:38.843Z,22.44
2022-09-14T05:16:38.827Z,22.45
2022-09-14T05:17:38.791Z,22.45
2022-09-14T05:18:38.782Z,22.45
2022-09-14T05:19:38.769Z,22.44
2022-09-14T05:20:39.232Z,22.45
2022-09-14T05:21:38.769Z,22.45
2022-09-14T05:22:38.737Z,22.47
2022-09-14T05:23:38.759Z,22.45
2022-09-14T05:24:38.715Z,22.45
2022-09-14T05:25:38.704Z,22.45
2022-09-14T05:26:38.719Z,22.47
2022-09-14T05:27:38.703Z,22.44
2022-09-14T05:28:38.674Z,22.45
2022-09-14T05:29:38.667Z,22.45
2022-09-14T05:30:38.649Z,22.45
2022-09-14T05:31:38.727Z,22.45
2022-09-14T05:32:38.654Z,22.45
2022-09-14T05:33:38.615Z,22.47
2022-09-14T05:34:38.606Z,22.47
2022-09-14T05:35:38.595Z,22.45
2022-09-14T05:36:38.584Z,22.45
2022-09-14T05:37:38.620Z,22.44
2022-09-14T05:38:38.562Z,22.44
2022-09-14T05:39:38.575Z,22.45
2022-09-14T05:40:38.543Z,22.45
2022-09-14T05:41:38.529Z,22.45
2022-09-14T05:42:38.540Z,22.47
2022-09-14T05:43:38.531Z,22.45
2022-09-14T05:44:38.506Z,22.45
2022-09-14T05:45:38.487Z,22.45
2022-09-14T05:46:38.534Z,22.44
2022-09-14T05:47:39.362Z,22.45
2022-09-14T05:48:38.453Z,22.44
2022-09-14T05:49:38.442Z,22.44
2022-09-14T05:50:38.433Z,22.45
2022-09-14T05:51:38.421Z,22.45
2022-09-14T05:52:38.445Z,22.45
2022-09-14T05:53:38.398Z,22.45
2022-09-14T05:54:38.387Z,22.45
2022-09-14T05:55:38.486Z,22.44
2022-09-14T05:56:38.365Z,22.44
2022-09-14T05:57:38.357Z,22.45
2022-09-14T05:58:38.371Z,22.44
2022-09-14T05:59:38.356Z,22.45
2022-09-14T06:00:38.325Z,22.45
2022-09-14T06:01:38.364Z,22.44
2022-09-14T06:02:38.303Z,22.44
2022-09-14T06:03:38.289Z,22.44
2022-09-14T06:04:38.305Z,22.45
2022-09-14T06:05:38.333Z,22.44
2022-09-14T06:06:38.280Z,22.44
2022-09-14T06:07:38.246Z,22.44
2022-09-14T06:08:38.234Z,22.44
2022-09-14T06:09:38.223Z,22.44
2022-09-14T06:10:38.215Z,22.44
2022-09-14T06:11:38.247Z,22.45
2022-09-14T06:12:38.196Z,22.44
2022-09-14T06:13:38.183Z,22.45
2022-09-14T06:14:38.173Z,22.44
2022-09-14T06:15:38.157Z,22.44
2022-09-14T06:16:38.171Z,22.44
2022-09-14T06:17:38.136Z,22.45
2022-09-14T06:18:38.151Z,22.44
2022-09-14T06:19:38.114Z,22.45
2022-09-14T06:20:38.104Z,22.45
2022-09-14T06:21:38.094Z,22.44
2022-09-14T06:22:38.083Z,22.44
2022-09-14T06:23:38.097Z,22.45
2022-09-14T06:24:38.063Z,22.45
2022-09-14T06:25:38.048Z,22.44
2022-09-14T06:26:38.043Z,22.44
2022-09-14T06:27:38.073Z,22.44
2022-09-14T06:28:38.019Z,22.47
2022-09-14T06:29:38.008Z,22.45
2022-09-14T06:30:37.994Z,22.45
2022-09-14T06:31:37.984Z,22.44
2022-09-14T06:32:37.996Z,22.45
2022-09-14T06:33:37.962Z,22.44
2022-09-14T06:34:37.972Z,22.45
2022-09-14T06:35:37.943Z,22.44
2022-09-14T06:36:37.929Z,22.44
2022-09-14T06:37:37.919Z,22.44
2022-09-14T06:38:37.910Z,22.44
2022-09-14T06:39:37.935Z,22.44
2022-09-14T06:40:37.886Z,22.44
2022-09-14T06:41:37.877Z,22.45
2022-09-14T06:42:37.870Z,22.44
2022-09-14T06:43:37.874Z,22.45
2022-09-14T06:44:37.842Z,22.44
2022-09-14T06:45:37.855Z,22.44
2022-09-14T06:46:37.843Z,22.44
2022-09-14T06:47:37.808Z,22.44
2022-09-14T06:48:37.800Z,22.44
2022-09-14T06:49:37.787Z,22.45
2022-09-14T06:50:37.800Z,22.44
2022-09-14T06:51:37.766Z,22.44
2022-09-14T06:52:37.759Z,22.44
2022-09-14T06:53:37.764Z,22.45
2022-09-14T06:54:37.735Z,22.44
2022-09-14T06:55:37.722Z,22.44
2022-09-14T06:56:37.711Z,22.45
2022-09-14T06:57:42.086Z,22.43
2022-09-14T06:58:38.711Z,22.44
2022-09-14T06:59:37.722Z,22.44
2022-09-14T07:00:37.670Z,22.44
2022-09-14T07:01:37.656Z,22.44
2022-09-14T07:02:37.656Z,22.45
2022-09-14T07:03:37.656Z,22.44
2022-09-14T07:04:37.625Z,22.44
2022-09-14T07:05:37.613Z,22.44
2022-09-14T07:06:37.604Z,22.44
2022-09-14T07:07:37.591Z,22.44
2022-09-14T07:08:37.608Z,22.44
2022-09-14T07:09:37.570Z,22.44
2022-09-14T07:10:37.582Z,22.44
2022-09-14T07:11:37.548Z,22.44
2022-09-14T07:12:37.539Z,22.44
2022-09-14T07:13:37.525Z,22.44
2022-09-14T07:14:37.538Z,22.44
2022-09-14T07:15:37.526Z,22.43
2022-09-14T07:16:37.494Z,22.44
2022-09-14T07:17:37.481Z,22.45
2022-09-14T07:18:37.472Z,22.43
2022-09-14T07:19:37.481Z,22.44
2022-09-14T07:20:37.451Z,22.44
2022-09-14T07:21:37.437Z,22.44
2022-09-14T07:22:37.426Z,22.44
2022-09-14T07:23:37.417Z,22.44
2022-09-14T07:24:37.428Z,22.43
2022-09-14T07:25:37.472Z,22.44
2022-09-14T07:26:37.408Z,22.44
2022-09-14T07:27:37.387Z,22.44
2022-09-14T07:28:37.406Z,22.44
2022-09-14T07:29:37.352Z,22.44
2022-09-14T07:30:37.366Z,22.45
2022-09-14T07:31:37.471Z,22.44
2022-09-14T07:32:37.318Z,22.44
2022-09-14T07:33:37.307Z,22.44
2022-09-14T07:34:37.298Z,22.44
2022-09-14T07:35:37.287Z,22.44
2022-09-14T07:36:37.301Z,22.45
2022-09-14T07:37:37.264Z,22.44
2022-09-14T07:38:51.575Z,22.44
2022-09-14T07:39:38.265Z,22.45
2022-09-14T07:40:37.234Z,22.44
2022-09-14T07:41:37.223Z,22.44
2022-09-14T07:42:37.260Z,22.45
2022-09-14T07:43:37.228Z,22.45
2022-09-14T07:44:37.188Z,22.45
2022-09-14T07:45:37.245Z,22.44
2022-09-14T07:46:37.169Z,22.45
2022-09-14T07:47:37.201Z,22.45
2022-09-14T07:48:37.146Z,22.44
2022-09-14T07:49:37.134Z,22.44
2022-09-14T07:50:37.122Z,22.44
2022-09-14T07:51:37.115Z,22.44
2022-09-14T07:52:38.813Z,22.45
2022-09-14T07:53:37.091Z,22.44
2022-09-14T07:54:37.099Z,22.45
2022-09-14T07:55:37.066Z,22.44
2022-09-14T07:56:37.058Z,22.45
2022-09-14T07:57:55.192Z,22.44
2022-09-14T07:58:38.034Z,22.45
2022-09-14T07:59:37.607Z,22.45
2022-09-14T08:00:37.015Z,22.45
2022-09-14T08:01:37.088Z,22.45
2022-09-14T08:02:37.075Z,22.44
2022-09-14T08:03:37.046Z,22.45
2022-09-14T08:04:36.973Z,22.44
2022-09-14T08:05:36.957Z,22.45
2022-09-14T08:06:36.953Z,22.45
2022-09-14T08:07:36.957Z,22.44
2022-09-14T08:08:36.925Z,22.45
2022-09-14T08:09:36.934Z,22.45
2022-09-14T08:10:36.906Z,22.45
2022-09-14T08:11:36.892Z,22.45
2022-09-14T08:12:36.906Z,22.45
2022-09-14T08:13:36.875Z,22.47
2022-09-14T08:14:36.864Z,22.47
2022-09-14T08:15:36.871Z,22.45
2022-09-14T08:16:36.903Z,22.47
2022-09-14T08:17:36.827Z,22.45
2022-09-14T08:18:36.825Z,22.45
2022-09-14T08:19:36.828Z,22.47
2022-09-14T08:20:36.823Z,22.48
2022-09-14T08:21:36.819Z,22.47
2022-09-14T08:22:36.775Z,22.47
2022-09-14T08:23:36.760Z,22.47
2022-09-14T08:24:36.755Z,22.48
2022-09-14T08:25:36.740Z,22.48
2022-09-14T08:26:36.729Z,22.47
2022-09-14T08:27:36.740Z,22.47
2022-09-14T08:28:36.730Z,22.48
2022-09-14T08:29:36.716Z,22.47
2022-09-14T08:30:36.686Z,22.47
2022-09-14T08:31:36.741Z,22.47
2022-09-14T08:32:36.664Z,22.48
2022-09-14T08:33:36.653Z,22.47
2022-09-14T08:34:36.666Z,22.48
2022-09-14T08:35:57.096Z,22.48
2022-09-14T08:36:37.623Z,22.47
2022-09-14T08:37:36.612Z,22.48
2022-09-14T08:38:36.599Z,22.48
2022-09-14T08:39:36.608Z,22.48
2022-09-14T08:40:36.651Z,22.48
2022-09-14T08:41:36.565Z,22.48
2022-09-14T08:42:36.556Z,22.47
2022-09-14T08:43:36.543Z,22.48
2022-09-14T08:44:36.557Z,22.48
2022-09-14T08:45:36.569Z,22.48
2022-09-14T08:46:36.512Z,22.48
2022-09-14T08:47:36.523Z,22.47
2022-09-14T08:48:36.490Z,22.48
2022-09-14T08:49:36.480Z,22.48
2022-09-14T08:50:38.860Z,22.48
2022-09-14T08:51:36.567Z,22.48
2022-09-14T08:52:36.470Z,22.50
2022-09-14T08:53:36.433Z,22.48
2022-09-14T08:54:36.428Z,22.48
2022-09-14T08:55:36.412Z,22.48
2022-09-14T08:56:36.402Z,22.48
2022-09-14T08:57:36.413Z,22.48
2022-09-14T08:58:43.971Z,22.48
2022-09-14T08:59:37.368Z,22.48
2022-09-14T09:00:36.406Z,22.48
2022-09-14T09:01:36.346Z,22.50
2022-09-14T09:02:36.338Z,22.50
2022-09-14T09:03:36.402Z,22.48
2022-09-14T09:04:36.342Z,22.50
2022-09-14T09:05:36.305Z,22.50
2022-09-14T09:06:36.318Z,22.50
2022-09-14T09:07:36.377Z,22.50
2022-09-14T09:08:36.271Z,22.51
2022-09-14T09:09:36.260Z,22.50
2022-09-14T09:10:36.272Z,22.50
2022-09-14T09:11:36.239Z,22.50
2022-09-14T09:12:36.228Z,22.50
2022-09-14T09:13:36.217Z,22.51
2022-09-14T09:14:36.234Z,22.51
2022-09-14T09:15:36.215Z,22.51
2022-09-14T09:16:36.267Z,22.51
2022-09-14T09:17:36.194Z,22.50
2022-09-14T09:18:36.161Z,22.51
2022-09-14T09:19:36.153Z,22.50
2022-09-14T09:20:36.139Z,22.50
2022-09-14T09:21:36.127Z,22.50
2022-09-14T09:22:36.155Z,22.51
2022-09-14T09:23:36.127Z,22.51
2022-09-14T09:24:37.438Z,22.50
2022-09-14T09:25:36.084Z,22.51
2022-09-14T09:26:36.073Z,22.51
2022-09-14T09:27:36.063Z,22.50
2022-09-14T09:28:36.077Z,22.51
2022-09-14T09:29:36.041Z,22.50
2022-09-14T09:30:36.043Z,22.50
2022-09-14T09:31:36.193Z,22.51
2022-09-14T09:32:36.008Z,22.51
2022-09-14T09:33:36.025Z,22.50
2022-09-14T09:34:35.988Z,22.51
2022-09-14T09:35:35.975Z,22.51
2022-09-14T09:36:35.967Z,22.51
2022-09-14T09:37:35.953Z,22.50
2022-09-14T09:38:35.972Z,22.50
2022-09-14T09:39:36.024Z,22.50
2022-09-14T09:40:35.923Z,22.51
2022-09-14T09:41:35.909Z,22.50
2022-09-14T09:42:35.922Z,22.51
2022-09-14T09:43:49.305Z,22.50
2022-09-14T09:44:36.883Z,22.50
2022-09-14T09:45:35.887Z,22.50
2022-09-14T09:46:35.967Z,22.50
2022-09-14T09:47:35.865Z,22.51
2022-09-14T09:48:35.839Z,22.50
2022-09-14T09:49:35.830Z,22.50
2022-09-14T09:50:35.837Z,22.50
2022-09-14T09:51:35.804Z,22.50
2022-09-14T09:52:35.791Z,22.50
2022-09-14T09:53:35.780Z,22.50
2022-09-14T09:54:35.792Z,22.51
2022-09-14T09:55:35.777Z,22.50
2022-09-14T09:56:35.749Z,22.50
2022-09-14T09:57:35.736Z,22.50
2022-09-14T09:58:35.728Z,22.50
2022-09-14T09:59:35.737Z,22.50
2022-09-14T10:00:35.773Z,22.50
2022-09-14T10:01:35.866Z,22.50
2022-09-14T10:02:35.735Z,22.50
2022-09-14T10:03:35.671Z,22.50
2022-09-14T10:04:35.659Z,22.50
2022-09-14T10:05:35.666Z,22.48
2022-09-14T10:06:35.638Z,22.51
2022-09-14T10:07:35.650Z,22.50
2022-09-14T10:08:35.619Z,22.50
2022-09-14T10:09:35.627Z,22.51
2022-09-14T10:10:35.638Z,22.50
2022-09-14T10:11:35.607Z,22.50
2022-09-14T10:12:35.571Z,22.50
2022-09-14T10:13:38.530Z,22.50
2022-09-14T10:14:35.591Z,22.51
2022-09-14T10:15:35.538Z,22.50
2022-09-14T10:16:35.606Z,22.50
2022-09-14T10:17:35.516Z,22.51
2022-09-14T10:18:35.504Z,22.51
2022-09-14T10:19:35.539Z,22.51
2022-09-14T10:20:35.488Z,22.51
2022-09-14T10:21:35.589Z,22.51
2022-09-14T10:22:35.464Z,22.51
2022-09-14T10:23:35.456Z,22.51
2022-09-14T10:24:35.463Z,22.51
2022-09-14T10:25:35.432Z,22.48
2022-09-14T10:26:35.440Z,22.51
2022-09-14T10:27:37.977Z,22.51
2022-09-14T10:28:35.400Z,22.51
2022-09-14T10:29:35.388Z,22.51
2022-09-14T10:30:35.377Z,22.53
2022-09-14T10:31:35.512Z,22.51
2022-09-14T10:32:35.356Z,22.50
2022-09-14T10:33:35.342Z,22.50
2022-09-14T10:34:35.334Z,22.51
2022-09-14T10:35:35.320Z,22.51
2022-09-14T10:36:35.309Z,22.51
2022-09-14T10:37:35.322Z,22.51
2022-09-14T10:38:35.314Z,22.51
2022-09-14T10:39:35.279Z,22.51
2022-09-14T10:40:35.268Z,22.51
2022-09-14T10:41:35.257Z,22.51
2022-09-14T10:42:35.254Z,22.51
2022-09-14T10:43:35.279Z,22.50
2022-09-14T10:44:35.229Z,22.51
2022-09-14T10:45:35.211Z,22.51
2022-09-14T10:46:35.242Z,22.50
2022-09-14T10:47:35.225Z,22.51
2022-09-14T10:48:35.180Z,22.51
2022-09-14T10:49:35.169Z,22.51
2022-09-14T10:50:35.157Z,22.51
2022-09-14T10:51:35.148Z,22.53
2022-09-14T10:52:35.137Z,22.54
2022-09-14T10:53:35.153Z,22.54
2022-09-14T10:54:35.113Z,22.55
2022-09-14T10:55:35.107Z,22.54
2022-09-14T10:56:35.091Z,22.55
2022-09-14T10:57:35.080Z,22.55
2022-09-14T10:58:35.094Z,22.54
2022-09-14T10:59:35.089Z,22.54
2022-09-14T11:00:35.072Z,22.55
2022-09-14T11:01:35.078Z,22.55
2022-09-14T11:02:35.189Z,22.54
2022-09-14T11:03:35.016Z,22.55
2022-09-14T11:04:35.006Z,22.54
2022-09-14T11:05:35.019Z,22.54
2022-09-14T11:06:34.983Z,22.55
2022-09-14T11:07:34.971Z,22.55
2022-09-14T11:08:34.970Z,22.55
2022-09-14T11:09:34.952Z,22.54
2022-09-14T11:10:34.965Z,22.54
2022-09-14T11:11:34.928Z,22.54
2022-09-14T11:12:34.919Z,22.54
2022-09-14T11:13:34.912Z,22.55
2022-09-14T11:14:34.896Z,22.55
2022-09-14T11:15:34.971Z,22.54
2022-09-14T11:16:34.875Z,22.55
2022-09-14T11:17:34.886Z,22.53
2022-09-14T11:18:34.851Z,22.55
2022-09-14T11:19:34.847Z,22.53
2022-09-14T11:20:36.073Z,22.54
2022-09-14T11:21:34.846Z,22.51
2022-09-14T11:22:34.809Z,22.54
2022-09-14T11:23:34.799Z,22.54
2022-09-14T11:24:34.787Z,22.53
2022-09-14T11:25:34.779Z,22.51
2022-09-14T11:26:37.182Z,22.53
2022-09-14T11:27:34.780Z,22.53
2022-09-14T11:28:34.743Z,22.53
2022-09-14T11:29:34.754Z,22.53
2022-09-14T11:30:34.721Z,22.53
2022-09-14T11:31:34.803Z,22.53
2022-09-14T11:32:34.727Z,22.53
2022-09-14T11:33:34.692Z,22.53
2022-09-14T11:34:34.678Z,22.53
2022-09-14T11:35:34.690Z,22.54
2022-09-14T11:36:34.657Z,22.53
2022-09-14T11:37:34.644Z,22.53
2022-09-14T11:38:34.634Z,22.53
2022-09-14T11:39:34.626Z,22.53
2022-09-14T11:40:34.666Z,22.53
2022-09-14T11:41:34.602Z,22.53
2022-09-14T11:42:34.596Z,22.53
2022-09-14T11:43:34.580Z,22.53
2022-09-14T11:44:34.569Z,22.53
2022-09-14T11:45:34.584Z,22.53
2022-09-14T11:46:34.657Z,22.54
2022-09-14T11:47:34.646Z,22.54
2022-09-14T11:48:43.397Z,22.53
2022-09-14T11:49:35.516Z,22.53
2022-09-14T11:50:34.525Z,22.53
2022-09-14T11:51:34.527Z,22.54
2022-09-14T11:52:34.482Z,22.54
2022-09-14T11:53:34.473Z,22.53
2022-09-14T11:54:34.459Z,22.54
2022-09-14T11:55:34.454Z,22.53
2022-09-14T11:56:34.438Z,22.54
2022-09-14T11:57:34.453Z,22.53
2022-09-14T11:58:34.418Z,22.53
2022-09-14T11:59:34.408Z,22.53
2022-09-14T12:00:34.394Z,22.55
2022-09-14T12:01:34.384Z,22.53
2022-09-14T12:02:34.469Z,22.54
2022-09-14T12:03:34.533Z,22.54
2022-09-14T12:04:34.352Z,22.53
2022-09-14T12:05:34.369Z,22.53
2022-09-14T12:06:34.331Z,22.54
2022-09-14T12:07:34.319Z,22.53
2022-09-14T12:08:34.330Z,22.53
2022-09-14T12:09:34.300Z,22.51
2022-09-14T12:10:34.286Z,22.54
2022-09-14T12:11:34.274Z,22.53
2022-09-14T12:12:34.265Z,22.54
2022-09-14T12:13:34.277Z,22.53
2022-09-14T12:14:34.243Z,22.54
2022-09-14T12:15:34.293Z,22.54
2022-09-14T12:16:34.777Z,22.54
2022-09-14T12:17:41.603Z,22.53
2022-09-14T12:18:35.223Z,22.53
2022-09-14T12:19:34.267Z,22.54
2022-09-14T12:20:34.188Z,22.54
2022-09-14T12:21:34.167Z,22.53
2022-09-14T12:22:34.153Z,22.54
2022-09-14T12:23:34.168Z,22.55
2022-09-14T12:24:34.134Z,22.54
2022-09-14T12:25:34.124Z,22.54
2022-09-14T12:26:34.109Z,22.54
2022-09-14T12:27:34.105Z,22.54
2022-09-14T12:28:34.112Z,22.57
2022-09-14T12:29:34.100Z,22.55
2022-09-14T12:30:38.308Z,22.55
2022-09-14T12:31:35.127Z,22.54
2022-09-14T12:32:34.047Z,22.55
2022-09-14T12:33:34.039Z,22.55
2022-09-14T12:34:34.023Z,22.57
2022-09-14T12:35:34.057Z,22.55
2022-09-14T12:36:34.006Z,22.55
2022-09-14T12:37:33.993Z,22.55
2022-09-14T12:38:33.983Z,22.55
2022-09-14T12:39:33.972Z,22.55
2022-09-14T12:40:34.109Z,22.55
2022-09-14T12:41:33.948Z,22.55
2022-09-14T12:42:33.957Z,22.55
2022-09-14T12:43:33.925Z,22.57
2022-09-14T12:44:33.916Z,22.57
2022-09-14T12:45:33.903Z,22.55
2022-09-14T12:46:34.049Z,22.54
2022-09-14T12:47:33.903Z,22.54
2022-09-14T12:48:33.873Z,22.55
2022-09-14T12:49:33.859Z,22.55
2022-09-14T12:50:33.873Z,22.54
2022-09-14T12:51:33.951Z,22.55
2022-09-14T12:52:33.827Z,22.54